Time;durP1;ratioP1;P1;durP2;ratioP2;P2;SDS_P1;SDS_P2;PMS_P1;PMS_P2;Temp;Humidity;BMP_temperature;BMP_pressure;BME280_temperature;BME280_humidity;BME280_pressure;Samples;Min_cycle;Max_cycle;Signal;HPM_P1;HPM_P2
2023/01/26 00:02:16;;;;;;;2.90;1.00;;;20.60;30.50;;;;;;5063652;28;20232;-67
2023/01/26 00:04:43;;;;;;;7.05;1.33;;;20.60;30.50;;;;;;5068783;28;20062;-67
2023/01/26 00:07:09;;;;;;;23.48;2.00;;;20.50;30.50;;;;;;5064015;28;20134;-67
2023/01/26 00:09:36;;;;;;;5.75;1.20;;;20.40;30.90;;;;;;5063088;28;20441;-67
2023/01/26 00:12:02;;;;;;;3.13;1.00;;;20.50;31.20;;;;;;5065285;28;20048;-69
2023/01/26 00:14:48;;;;;;;3.97;1.00;;;20.50;31.50;;;;;;5060452;28;20043;-69
2023/01/26 00:17:24;;;;;;;16.20;8.45;;;20.40;31.80;;;;;;5061608;28;20043;-70
2023/01/26 00:19:55;;;;;;;5.47;3.58;;;20.40;32.50;;;;;;5065147;28;20112;-71
2023/01/26 00:22:23;;;;;;;9.32;3.92;;;20.20;33.10;;;;;;5066132;28;20133;-72
2023/01/26 00:24:49;;;;;;;9.10;5.30;;;20.10;32.90;;;;;;5062295;28;20071;-70
2023/01/26 00:27:16;;;;;;;2.08;1.08;;;20.00;33.20;;;;;;5062272;28;20090;-69
2023/01/26 00:29:42;;;;;;;4.63;0.93;;;20.00;33.50;;;;;;5044499;28;20056;-66
2023/01/26 00:32:08;;;;;;;4.95;1.15;;;19.90;33.40;;;;;;5065572;28;20059;-67
2023/01/26 00:34:35;;;;;;;5.55;1.20;;;19.70;33.70;;;;;;5058477;28;20050;-68
2023/01/26 00:37:01;;;;;;;4.78;0.95;;;19.70;34.10;;;;;;5061614;28;20139;-68
2023/01/26 00:39:28;;;;;;;5.72;1.70;;;19.60;34.30;;;;;;5064612;28;20053;-70
2023/01/26 00:42:08;;;;;;;8.98;1.20;;;19.60;34.50;;;;;;5064921;28;20067;-68
2023/01/26 00:44:38;;;;;;;16.60;1.60;;;19.40;34.90;;;;;;5062674;28;20062;-70
2023/01/26 00:47:06;;;;;;;3.45;1.23;;;19.30;35.50;;;;;;5064606;28;20076;-69
2023/01/26 00:49:33;;;;;;;6.55;1.40;;;19.20;35.80;;;;;;5059421;28;20139;-70
2023/01/26 00:52:00;;;;;;;4.53;1.30;;;19.10;36.30;;;;;;5064992;28;20128;-68
2023/01/26 00:54:27;;;;;;;6.97;1.30;;;18.90;36.60;;;;;;5064945;28;20068;-68
2023/01/26 00:56:54;;;;;;;3.50;1.23;;;18.90;36.90;;;;;;5063572;28;20063;-70
2023/01/26 00:59:21;;;;;;;4.82;1.50;;;18.80;37.10;;;;;;5065275;28;20173;-70
2023/01/26 01:01:47;;;;;;;3.80;1.33;;;18.70;37.10;;;;;;5063277;28;20066;-66
2023/01/26 01:04:15;;;;;;;3.85;1.23;;;18.60;37.20;;;;;;5058674;28;20546;-68
2023/01/26 01:06:42;;;;;;;5.43;1.55;;;18.50;37.50;;;;;;5063933;28;20062;-68
2023/01/26 01:09:08;;;;;;;10.95;1.88;;;18.30;37.50;;;;;;5057463;28;20092;-71
2023/01/26 01:11:35;;;;;;;8.38;1.77;;;18.30;37.70;;;;;;5063153;28;20072;-70
2023/01/26 01:14:02;;;;;;;11.05;2.33;;;18.20;37.90;;;;;;5063859;28;20064;-69
2023/01/26 01:16:28;;;;;;;13.80;1.75;;;18.10;37.80;;;;;;5061955;28;20143;-71
2023/01/26 01:18:55;;;;;;;8.70;1.75;;;18.00;38.00;;;;;;5061201;28;20058;-66
2023/01/26 01:21:23;;;;;;;9.23;1.58;;;17.90;38.10;;;;;;5057790;28;20070;-70
2023/01/26 01:23:53;;;;;;;10.38;1.77;;;17.80;38.30;;;;;;5063433;28;20108;-69
2023/01/26 01:26:20;;;;;;;17.98;2.05;;;17.70;39.00;;;;;;5062992;28;20272;-68
2023/01/26 01:28:46;;;;;;;18.90;1.85;;;17.60;39.10;;;;;;5060277;28;20419;-69
2023/01/26 01:31:15;;;;;;;8.13;2.10;;;17.50;39.10;;;;;;5060617;28;20083;-70
2023/01/26 01:33:42;;;;;;;10.65;2.20;;;17.40;39.40;;;;;;5059532;28;20067;-69
2023/01/26 01:36:12;;;;;;;11.52;1.73;;;17.30;40.00;;;;;;5064845;28;20067;-68
2023/01/26 01:38:38;;;;;;;16.90;2.47;;;17.20;39.90;;;;;;5046031;28;20155;-70
2023/01/26 01:41:06;;;;;;;7.15;2.13;;;17.20;40.20;;;;;;5058159;28;20060;-70
2023/01/26 01:43:33;;;;;;;18.42;2.50;;;17.10;40.00;;;;;;5056771;28;20108;-71
2023/01/26 01:46:13;;;;;;;23.83;2.42;;;17.00;40.10;;;;;;5063781;28;20072;-69
2023/01/26 01:49:09;;;;;;;20.77;2.40;;;16.90;39.90;;;;;;5059392;28;20061;-72
2023/01/26 01:51:55;;;;;;;22.48;2.63;;;16.80;40.00;;;;;;5060870;28;20060;-71
2023/01/26 01:54:29;;;;;;;21.27;3.17;;;16.70;39.90;;;;;;5062585;28;20066;-70
2023/01/26 01:57:00;;;;;;;21.65;2.80;;;16.70;39.60;;;;;;5059912;28;20429;-67
2023/01/26 01:59:26;;;;;;;16.90;3.13;;;16.70;39.50;;;;;;5065538;28;20549;-68
2023/01/26 02:01:54;;;;;;;16.55;2.30;;;16.60;39.10;;;;;;5062290;28;20525;-72
2023/01/26 02:04:23;;;;;;;15.63;2.00;;;16.50;39.20;;;;;;5066246;28;21395;-67
2023/01/26 02:06:52;;;;;;;9.85;2.17;;;16.40;39.20;;;;;;5059882;28;20061;-69
2023/01/26 02:12:30;;;;;;;11.90;2.45;;;16.40;39.30;;;;;;5060190;28;20070;-71
2023/01/26 02:14:57;;;;;;;8.15;2.50;;;16.30;39.30;;;;;;5059019;28;20062;-70
2023/01/26 02:17:24;;;;;;;11.32;3.17;;;16.30;39.50;;;;;;5060942;28;20074;-70
2023/01/26 02:20:07;;;;;;;12.02;2.67;;;16.30;39.70;;;;;;5062046;28;21006;-72
2023/01/26 02:23:02;;;;;;;14.52;2.55;;;16.20;39.90;;;;;;5057179;28;20066;-71
2023/01/26 02:25:53;;;;;;;7.57;2.20;;;16.10;40.00;;;;;;5059874;28;20174;-69
2023/01/26 02:28:23;;;;;;;6.57;1.38;;;16.00;40.20;;;;;;5059787;28;20065;-71
2023/01/26 02:30:50;;;;;;;5.55;1.50;;;16.00;40.40;;;;;;5061000;28;20060;-69
2023/01/26 02:33:24;;;;;;;108.35;6.78;;;16.00;40.60;;;;;;5060821;28;20164;-71
2023/01/26 02:35:51;;;;;;;61.88;3.22;;;15.90;40.60;;;;;;5055629;28;20156;-69
2023/01/26 02:38:20;;;;;;;9.60;1.50;;;15.90;40.90;;;;;;5063595;28;20154;-69
2023/01/26 02:41:01;;;;;;;9.07;1.60;;;15.80;41.10;;;;;;5062481;28;20586;-69
2023/01/26 02:43:28;;;;;;;9.13;1.60;;;15.70;41.00;;;;;;5062221;28;20164;-71
2023/01/26 02:45:55;;;;;;;7.78;1.35;;;15.70;41.10;;;;;;5045020;28;20126;-69
2023/01/26 02:51:06;;;;;;;8.20;1.50;;;15.60;41.40;;;;;;5060809;28;20088;-69
2023/01/26 02:53:33;;;;;;;6.80;1.92;;;15.50;41.90;;;;;;5064409;28;20063;-69
2023/01/26 02:55:59;;;;;;;11.45;2.17;;;15.30;42.00;;;;;;5064956;28;20064;-69
2023/01/26 02:58:25;;;;;;;;;;;15.20;42.00;;;;;;5065042;28;20088;-70
2023/01/26 03:00:52;;;;;;;21.45;2.75;;;15.10;42.40;;;;;;5061095;28;19954;-68
2023/01/26 03:03:40;;;;;;;;;;;15.10;42.60;;;;;;5060663;28;20087;-69
2023/01/26 03:06:10;;;;;;;34.58;4.35;;;15.00;42.90;;;;;;5061934;28;19957;-70
2023/01/26 03:08:37;;;;;;;48.65;4.97;;;14.90;43.30;;;;;;5058670;28;20156;-69
2023/01/26 03:11:06;;;;;;;34.28;3.90;;;14.90;43.40;;;;;;5058110;28;20115;-68
2023/01/26 03:13:32;;;;;;;25.52;3.65;;;14.80;43.80;;;;;;5058146;28;20570;-68
2023/01/26 03:16:05;;;;;;;18.35;3.30;;;14.80;44.50;;;;;;5059546;28;20524;-70
2023/01/26 03:29:33;;;;;;;20.55;4.60;;;14.40;45.20;;;;;;5059600;28;20067;-68
2023/01/26 03:32:00;;;;;;;19.58;4.20;;;14.30;45.10;;;;;;5061818;28;20422;-67
2023/01/26 03:34:28;;;;;;;34.50;4.78;;;14.30;45.30;;;;;;5059916;28;20095;-70
2023/01/26 03:36:55;;;;;;;23.58;3.85;;;14.10;45.20;;;;;;5060551;28;20076;-68
2023/01/26 03:59:07;;;;;;;23.48;4.35;;;13.70;47.20;;;;;;4989041;28;20086;-71
2023/01/26 04:01:36;;;;;;;23.77;6.28;;;13.60;47.10;;;;;;4990467;28;20078;-68
2023/01/26 04:09:35;;;;;;;26.73;5.97;;;13.60;47.70;;;;;;4990230;28;20127;-68
2023/01/26 04:12:02;;;;;;;22.65;5.47;;;13.50;47.10;;;;;;4990923;28;20071;-68
2023/01/26 04:22:44;;;;;;;15.90;4.32;;;13.20;47.30;;;;;;4989438;28;20109;-69
2023/01/26 04:25:13;;;;;;;23.95;4.07;;;13.20;47.20;;;;;;4990379;28;20098;-68
2023/01/26 04:27:41;;;;;;;20.25;5.35;;;13.20;47.40;;;;;;4991378;28;20070;-72
2023/01/26 04:30:10;;;;;;;22.65;3.75;;;13.20;47.50;;;;;;4990375;28;20086;-71
2023/01/26 04:32:36;;;;;;;26.73;4.20;;;13.20;47.50;;;;;;4988171;28;20067;-71
2023/01/26 04:35:05;;;;;;;15.07;3.92;;;13.20;48.00;;;;;;5016384;28;20179;-69
2023/01/26 04:37:31;;;;;;;20.25;4.30;;;13.10;48.10;;;;;;5063524;28;20073;-68
2023/01/26 04:39:57;;;;;;;;;;;13.00;47.80;;;;;;5065303;28;20140;-70
2023/01/26 04:42:24;;;;;;;25.63;4.80;;;13.00;47.40;;;;;;5060217;28;20334;-70
2023/01/26 04:44:53;;;;;;;17.67;3.45;;;13.00;47.10;;;;;;5064438;28;20085;-68
2023/01/26 04:47:20;;;;;;;28.30;4.13;;;13.10;46.40;;;;;;5060286;28;20578;-68
2023/01/26 04:49:47;;;;;;;16.45;3.78;;;13.10;46.40;;;;;;5061871;28;20139;-69
2023/01/26 04:52:14;;;;;;;13.90;3.72;;;13.10;46.50;;;;;;5061381;28;20156;-68
2023/01/26 04:54:40;;;;;;;13.07;2.60;;;13.20;46.20;;;;;;5065292;28;20615;-69
2023/01/26 04:57:07;;;;;;;18.38;3.08;;;13.10;45.80;;;;;;5066551;28;20086;-69
2023/01/26 04:59:34;;;;;;;12.30;3.22;;;13.10;45.80;;;;;;5063052;28;20503;-69
2023/01/26 05:02:00;;;;;;;18.75;3.75;;;13.20;45.20;;;;;;5058765;28;20107;-68
2023/01/26 05:04:26;;;;;;;;;;;13.20;45.60;;;;;;5061917;28;20089;-67
2023/01/26 05:06:53;;;;;;;22.20;6.88;;;13.30;45.20;;;;;;5060651;28;19993;-69
2023/01/26 05:09:19;;;;;;;;;;;13.30;45.50;;;;;;5039236;28;20480;-68
2023/01/26 05:11:45;;;;;;;12.80;3.03;;;13.40;45.10;;;;;;5054882;28;19954;-65
2023/01/26 05:14:11;;;;;;;;;;;13.40;45.50;;;;;;5062497;28;20161;-68
2023/01/26 05:16:38;;;;;;;12.73;3.35;;;13.50;45.60;;;;;;5065226;28;19958;-69
2023/01/26 05:19:04;;;;;;;;;;;13.50;44.70;;;;;;5063621;28;20073;-66
2023/01/26 05:21:30;;;;;;;7.70;2.42;;;13.50;45.10;;;;;;5062109;28;20380;-65
2023/01/26 05:23:56;;;;;;;;;;;13.60;45.20;;;;;;5061612;28;20096;-69
2023/01/26 05:26:25;;;;;;;6.85;2.22;;;13.60;45.60;;;;;;5046222;28;20027;-67
2023/01/26 05:28:51;;;;;;;;;;;13.50;45.80;;;;;;5063166;28;20122;-65
2023/01/26 05:31:17;;;;;;;17.58;2.70;;;13.50;45.90;;;;;;5064471;28;19973;-68
2023/01/26 05:33:43;;;;;;;;;;;13.50;45.40;;;;;;5058859;28;20062;-65
2023/01/26 05:36:10;;;;;;;11.55;2.33;;;13.50;45.30;;;;;;5063295;28;19976;-67
2023/01/26 05:38:36;;;;;;;;;;;13.40;45.10;;;;;;5063973;28;20108;-66
2023/01/26 05:41:02;;;;;;;59.67;24.45;;;13.30;45.10;;;;;;5064040;28;20395;-67
2023/01/26 05:43:29;;;;;;;;;;;13.10;45.60;;;;;;5061947;28;20080;-67
2023/01/26 05:45:56;;;;;;;21.80;10.00;;;13.10;46.20;;;;;;5060404;28;20290;-67
2023/01/26 05:48:22;;;;;;;11.75;4.20;;;13.10;45.40;;;;;;5065195;28;20603;-67
2023/01/26 05:50:48;;;;;;;;;;;13.10;44.80;;;;;;5065363;28;20147;-64
2023/01/26 05:53:14;;;;;;;13.45;5.18;;;13.20;45.50;;;;;;5060683;28;20519;-68
2023/01/26 05:55:42;;;;;;;23.35;7.07;;;13.20;45.40;;;;;;5062374;28;20084;-64
2023/01/26 05:58:08;;;;;;;21.45;6.93;;;13.10;45.40;;;;;;5059383;28;20065;-65
2023/01/26 06:00:34;;;;;;;;;;;13.10;45.80;;;;;;5063545;28;20065;-67
2023/01/26 06:03:00;;;;;;;12.55;3.63;;;13.10;44.50;;;;;;5060108;28;19958;-68
2023/01/26 06:05:26;;;;;;;;;;;13.20;44.70;;;;;;5064189;28;20062;-66
2023/01/26 06:07:53;;;;;;;6.78;1.90;;;13.10;44.20;;;;;;5061117;28;19977;-66
2023/01/26 06:10:19;;;;;;;;;;;13.20;44.60;;;;;;5053962;28;20129;-67
2023/01/26 06:12:45;;;;;;;7.00;1.70;;;13.20;44.50;;;;;;5059015;28;19979;-65
2023/01/26 06:15:11;;;;;;;;;;;13.20;44.70;;;;;;5060883;28;20059;-68
2023/01/26 06:17:38;;;;;;;6.05;2.10;;;13.20;45.20;;;;;;5060972;28;19975;-65
2023/01/26 06:20:06;;;;;;;7.90;1.90;;;13.20;45.20;;;;;;5061919;28;20514;-67
2023/01/26 06:22:33;;;;;;;9.57;2.20;;;13.10;45.50;;;;;;5060066;28;20068;-68
2023/01/26 06:24:59;;;;;;;14.23;3.13;;;12.90;45.70;;;;;;5060171;28;20079;-68
2023/01/26 06:27:25;;;;;;;;;;;12.90;46.20;;;;;;5059103;28;20062;-66
2023/01/26 06:29:51;;;;;;;13.98;3.03;;;12.90;46.30;;;;;;5059382;28;19975;-67
2023/01/26 06:32:17;;;;;;;;;;;12.80;46.40;;;;;;5062891;28;20067;-69
2023/01/26 06:34:44;;;;;;;14.60;4.13;;;12.80;46.30;;;;;;5063005;28;19976;-67
2023/01/26 06:37:10;;;;;;;;;;;12.70;46.30;;;;;;5060643;28;20151;-68
2023/01/26 06:39:36;;;;;;;21.60;4.10;;;12.70;46.50;;;;;;5063789;28;20013;-67
2023/01/26 06:42:03;;;;;;;;;;;12.60;46.60;;;;;;5063393;28;20074;-68
2023/01/26 06:44:30;;;;;;;13.10;2.58;;;12.60;46.40;;;;;;5058493;28;19978;-67
2023/01/26 06:46:56;;;;;;;;;;;12.70;46.50;;;;;;5058704;28;20089;-66
2023/01/26 06:49:22;;;;;;;11.18;2.35;;;12.60;46.50;;;;;;5058721;28;19961;-64
2023/01/26 06:51:55;;;;;;;;;;;12.60;46.60;;;;;;5061554;28;20056;-64
2023/01/26 06:54:22;;;;;;;23.10;13.77;;;12.60;46.80;;;;;;5061286;28;19953;-66
2023/01/26 06:56:48;;;;;;;12.20;2.22;;;12.70;46.70;;;;;;5060091;28;20104;-66
2023/01/26 06:59:15;;;;;;;17.58;2.42;;;12.60;46.00;;;;;;5058501;28;20492;-63
2023/01/26 07:01:46;;;;;;;14.80;3.13;;;12.70;46.10;;;;;;5061653;28;20074;-65
2023/01/26 07:04:12;;;;;;;10.50;2.45;;;12.80;45.70;;;;;;5059308;28;20535;-65
2023/01/26 07:06:38;;;;;;;11.30;3.38;;;13.00;45.40;;;;;;5063619;28;20115;-63
2023/01/26 07:09:05;;;;;;;;;;;13.20;45.00;;;;;;5045801;28;20100;-63
2023/01/26 07:11:31;;;;;;;5.75;3.30;;;13.30;44.00;;;;;;5058775;28;19962;-63
2023/01/26 07:13:58;;;;;;;14.73;3.72;;;13.50;44.10;;;;;;5061494;28;20073;-63
2023/01/26 07:16:25;;;;;;;15.70;3.45;;;13.60;43.40;;;;;;5059633;28;20149;-64
2023/01/26 07:18:54;;;;;;;10.02;3.05;;;13.70;42.90;;;;;;5058843;28;20160;-64
2023/01/26 07:21:21;;;;;;;13.80;3.38;;;13.80;42.50;;;;;;5060435;28;20117;-64
2023/01/26 07:23:49;;;;;;;10.63;2.80;;;14.00;42.50;;;;;;5062396;28;20187;-63
2023/01/26 07:26:16;;;;;;;9.57;2.55;;;13.90;42.30;;;;;;5062267;28;20159;-64
2023/01/26 07:28:42;;;;;;;9.75;2.53;;;13.90;42.00;;;;;;5058751;28;20061;-65
2023/01/26 07:31:10;;;;;;;9.32;2.17;;;14.00;42.60;;;;;;5062322;28;20533;-63
2023/01/26 07:33:37;;;;;;;7.88;2.58;;;14.00;42.50;;;;;;5058756;28;20068;-65
2023/01/26 07:36:03;;;;;;;;;;;14.00;42.40;;;;;;5065196;28;20121;-64
2023/01/26 07:38:30;;;;;;;10.07;3.72;;;13.90;42.50;;;;;;5043032;28;19959;-65
2023/01/26 07:40:56;;;;;;;8.07;3.63;;;13.90;42.60;;;;;;5062527;28;20147;-64
2023/01/26 07:43:23;;;;;;;9.52;3.08;;;13.90;42.40;;;;;;5062784;28;20424;-63
2023/01/26 07:45:51;;;;;;;5.28;2.78;;;13.90;42.40;;;;;;5066505;28;20078;-63
2023/01/26 07:48:19;;;;;;;9.15;3.05;;;13.80;42.30;;;;;;5063834;28;20099;-64
2023/01/26 07:50:47;;;;;;;8.88;2.67;;;13.90;42.30;;;;;;5067284;28;20175;-63
2023/01/26 07:53:18;;;;;;;9.63;2.70;;;13.90;42.20;;;;;;5062611;28;20122;-64
2023/01/26 07:55:45;;;;;;;6.05;2.25;;;13.90;42.00;;;;;;5061456;28;20077;-65
2023/01/26 07:58:12;;;;;;;9.05;2.38;;;13.80;41.90;;;;;;5063455;28;20458;-65
2023/01/26 08:00:39;;;;;;;5.63;1.95;;;13.80;42.00;;;;;;5067267;28;20093;-63
2023/01/26 08:03:05;;;;;;;;;;;13.80;41.80;;;;;;5058208;28;20108;-64
2023/01/26 08:05:32;;;;;;;6.68;1.77;;;13.80;41.70;;;;;;5065294;28;19962;-63
2023/01/26 08:07:59;;;;;;;8.20;1.88;;;13.80;41.80;;;;;;5064231;28;20077;-64
2023/01/26 08:10:32;;;;;;;3.63;1.50;;;13.80;41.90;;;;;;5061951;28;20145;-64
2023/01/26 08:12:59;;;;;;;7.95;2.25;;;13.90;41.90;;;;;;5061049;28;20520;-63
2023/01/26 08:15:26;;;;;;;10.18;2.30;;;13.90;42.30;;;;;;5063800;28;20092;-64
2023/01/26 08:17:53;;;;;;;8.15;2.10;;;13.80;42.20;;;;;;5067474;28;20557;-63
2023/01/26 08:20:20;;;;;;;7.30;1.67;;;13.70;42.40;;;;;;5063495;28;20072;-64
2023/01/26 08:22:46;;;;;;;5.32;1.77;;;13.80;42.90;;;;;;5065611;28;20071;-63
2023/01/26 08:25:12;;;;;;;;;;;13.80;42.90;;;;;;5061349;28;20574;-65
2023/01/26 08:27:39;;;;;;;6.00;1.80;;;13.70;42.90;;;;;;5067656;28;19968;-65
2023/01/26 08:30:05;;;;;;;;;;;13.60;42.90;;;;;;5063843;28;20089;-65
2023/01/26 08:32:32;;;;;;;8.27;1.70;;;13.60;43.10;;;;;;5064215;28;20464;-62
2023/01/26 08:34:58;;;;;;;;;;;13.50;43.00;;;;;;5067712;28;20073;-65
2023/01/26 08:37:24;;;;;;;5.97;1.90;;;13.50;43.00;;;;;;5061003;28;20001;-64
2023/01/26 08:39:50;;;;;;;;;;;13.40;43.50;;;;;;5063014;28;20087;-64
2023/01/26 08:42:16;;;;;;;3.10;1.75;;;13.30;43.50;;;;;;5064335;28;20006;-64
2023/01/26 08:44:42;;;;;;;;;;;13.30;43.60;;;;;;5065356;28;20171;-64
2023/01/26 08:47:09;;;;;;;3.08;1.42;;;13.30;43.70;;;;;;5061033;28;20068;-64
2023/01/26 08:49:35;;;;;;;;;;;13.30;43.90;;;;;;5064457;28;20069;-64
2023/01/26 08:52:01;;;;;;;4.43;1.38;;;13.20;43.90;;;;;;5059408;28;20321;-65
2023/01/26 08:54:27;;;;;;;;;;;13.10;43.90;;;;;;5063579;28;20161;-65
2023/01/26 08:56:54;;;;;;;2.80;1.13;;;13.10;43.90;;;;;;5059469;28;20040;-64
2023/01/26 08:59:20;;;;;;;;;;;13.10;43.90;;;;;;5064808;28;20099;-65
2023/01/26 09:01:48;;;;;;;2.80;1.20;;;13.00;43.90;;;;;;5065229;28;19953;-64
2023/01/26 09:04:14;;;;;;;3.83;1.00;;;13.00;43.90;;;;;;5063086;28;20088;-63
2023/01/26 09:06:40;;;;;;;;;;;13.00;43.90;;;;;;5044439;28;20154;-62
2023/01/26 09:09:11;;;;;;;2.28;1.00;;;13.00;44.00;;;;;;5063241;28;19958;-63
2023/01/26 09:11:39;;;;;;;3.20;1.20;;;13.10;44.50;;;;;;5059304;28;20660;-63
2023/01/26 09:14:05;;;;;;;6.32;1.15;;;13.00;43.90;;;;;;5041766;28;20667;-63
2023/01/26 09:16:32;;;;;;;6.30;1.27;;;13.10;44.10;;;;;;5063244;28;20157;-62
2023/01/26 09:18:58;;;;;;;;;;;13.00;43.90;;;;;;5063196;28;20127;-64
2023/01/26 09:21:24;;;;;;;3.17;0.98;;;13.00;44.30;;;;;;5065187;28;19964;-66
2023/01/26 09:23:50;;;;;;;;;;;13.00;44.70;;;;;;5062645;28;20157;-65
2023/01/26 09:26:17;;;;;;;5.38;0.93;;;13.00;44.60;;;;;;5057969;28;19999;-65
2023/01/26 09:28:43;;;;;;;;;;;12.90;45.20;;;;;;5063741;28;21685;-63
2023/01/26 09:31:10;;;;;;;5.03;1.23;;;12.80;45.30;;;;;;5060253;28;19976;-63
2023/01/26 09:33:40;;;;;;;3.85;1.50;;;12.80;45.60;;;;;;5060699;28;20118;-64
2023/01/26 09:36:09;;;;;;;7.18;1.60;;;12.80;45.80;;;;;;5061782;28;20070;-63
2023/01/26 09:38:36;;;;;;;6.70;1.23;;;12.70;46.80;;;;;;5058303;28;20072;-63
2023/01/26 09:41:50;;;;;;;3.75;1.10;;;12.70;46.00;;;;;;5063572;28;20068;-64
2023/01/26 09:44:23;;;;;;;1.30;0.70;;;12.60;46.40;;;;;;5058631;28;20530;-65
2023/01/26 09:46:55;;;;;;;5.78;0.80;;;12.60;45.90;;;;;;5063667;28;20078;-63
2023/01/26 09:49:40;;;;;;;1.52;0.55;;;12.50;45.70;;;;;;5061599;28;20072;-64
2023/01/26 09:52:33;;;;;;;0.50;0.40;;;12.50;45.20;;;;;;5059919;28;20118;-63
2023/01/26 09:55:14;;;;;;;3.72;0.70;;;12.60;45.20;;;;;;5062733;28;20542;-64
2023/01/26 09:57:52;;;;;;;5.63;0.80;;;12.60;44.80;;;;;;5064764;28;20093;-65
2023/01/26 10:00:31;;;;;;;3.40;0.73;;;12.60;44.70;;;;;;5063330;28;20064;-64
2023/01/26 10:03:16;;;;;;;4.10;0.70;;;12.70;44.50;;;;;;5058301;28;20081;-62
2023/01/26 10:06:20;;;;;;;2.63;0.60;;;12.70;44.50;;;;;;5058818;28;20067;-65
2023/01/26 10:08:48;;;;;;;2.25;0.40;;;12.70;44.30;;;;;;5061666;28;20068;-65
2023/01/26 10:11:30;;;;;;;2.60;0.60;;;12.70;44.50;;;;;;5063751;28;20567;-63
2023/01/26 10:14:19;;;;;;;0.63;0.50;;;12.70;44.50;;;;;;5061151;28;20085;-63
2023/01/26 10:16:48;;;;;;;1.77;0.55;;;12.70;44.50;;;;;;5062920;28;20078;-64
2023/01/26 10:19:32;;;;;;;0.85;0.65;;;12.70;44.30;;;;;;5062231;28;20071;-63
2023/01/26 10:22:04;;;;;;;3.50;0.68;;;12.80;44.90;;;;;;5061822;28;20114;-64
2023/01/26 10:24:33;;;;;;;0.82;0.52;;;12.70;44.50;;;;;;5062926;28;20101;-64
2023/01/26 10:27:00;;;;;;;3.05;0.52;;;12.70;44.70;;;;;;5060577;28;20060;-65
2023/01/26 10:29:26;;;;;;;1.73;0.60;;;12.60;44.80;;;;;;5061548;28;20437;-64
2023/01/26 10:31:53;;;;;;;;;;;12.50;44.70;;;;;;5058327;28;20067;-65
2023/01/26 10:34:25;;;;;;;0.82;0.50;;;12.50;44.90;;;;;;5062535;28;20438;-63
2023/01/26 10:37:15;;;;;;;0.40;0.40;;;12.50;44.90;;;;;;5062648;28;20080;-65
2023/01/26 10:39:58;;;;;;;3.80;0.60;;;12.50;44.70;;;;;;5060766;28;20093;-65
2023/01/26 10:42:28;;;;;;;0.70;0.30;;;12.50;44.80;;;;;;5061103;28;20484;-62
2023/01/26 10:44:55;;;;;;;2.97;0.55;;;12.50;44.70;;;;;;5061690;28;20094;-64
2023/01/26 10:47:22;;;;;;;2.17;0.50;;;12.50;44.80;;;;;;5059799;28;20084;-62
2023/01/26 10:49:48;;;;;;;;;;;12.50;44.70;;;;;;5058500;28;20462;-65
2023/01/26 10:52:16;;;;;;;2.47;0.50;;;12.50;44.50;;;;;;5057739;28;20018;-65
2023/01/26 10:54:47;;;;;;;1.25;0.40;;;12.50;44.60;;;;;;5063855;28;20163;-63
2023/01/26 10:57:28;;;;;;;0.47;0.35;;;12.60;44.50;;;;;;5060231;28;20071;-64
2023/01/26 10:59:58;;;;;;;3.05;0.40;;;12.70;44.00;;;;;;5064388;28;20648;-63
2023/01/26 11:02:29;;;;;;;1.65;0.40;;;12.70;43.80;;;;;;5061857;28;20076;-65
2023/01/26 11:05:08;;;;;;;1.45;0.55;;;12.80;44.20;;;;;;5057249;28;20122;-63
2023/01/26 11:07:45;;;;;;;0.95;0.50;;;12.70;44.00;;;;;;5061394;28;20066;-63
2023/01/26 11:10:24;;;;;;;1.60;0.47;;;12.80;43.90;;;;;;5058739;28;20159;-65
2023/01/26 11:13:05;;;;;;;5.88;0.55;;;12.90;43.80;;;;;;5065014;28;20070;-66
2023/01/26 11:15:39;;;;;;;0.52;0.50;;;12.90;43.40;;;;;;5063407;28;20094;-63
2023/01/26 11:18:41;;;;;;;3.33;0.68;;;12.90;43.70;;;;;;5065925;28;20541;-63
2023/01/26 11:21:19;;;;;;;4.57;0.77;;;12.90;43.90;;;;;;5032123;28;20101;-65
2023/01/26 11:23:51;;;;;;;1.70;0.55;;;12.90;44.10;;;;;;5060336;28;20096;-65
2023/01/26 11:26:59;;;;;;;6.65;0.70;;;12.80;44.20;;;;;;5066555;28;20516;-64
2023/01/26 11:29:59;;;;;;;1.52;0.60;;;12.80;44.30;;;;;;4985111;28;20088;-62
2023/01/26 11:32:29;;;;;;;2.20;0.70;;;12.70;44.60;;;;;;5062435;28;20070;-64
2023/01/26 11:35:12;;;;;;;1.08;0.55;;;12.70;44.70;;;;;;5064443;28;20150;-64
2023/01/26 11:37:42;;;;;;;1.00;0.47;;;12.60;44.80;;;;;;5063776;28;20083;-64
2023/01/26 11:40:47;;;;;;;1.30;0.40;;;12.60;44.70;;;;;;5063416;28;20485;-65
2023/01/26 11:43:32;;;;;;;2.88;0.43;;;12.60;44.80;;;;;;5058527;28;20159;-65
2023/01/26 11:46:17;;;;;;;1.50;0.50;;;12.50;44.70;;;;;;5065476;28;20067;-65
2023/01/26 11:49:16;;;;;;;0.40;0.40;;;12.50;44.90;;;;;;5066384;28;20149;-63
2023/01/26 11:52:17;;;;;;;2.95;0.40;;;12.40;45.10;;;;;;5062752;28;20093;-65
2023/01/26 11:55:14;;;;;;;0.45;0.43;;;12.40;45.70;;;;;;5005487;28;20224;-63
2023/01/26 11:58:00;;;;;;;1.40;0.35;;;12.30;45.50;;;;;;5003497;28;20093;-63
2023/01/26 12:00:50;;;;;;;0.75;0.50;;;12.20;45.70;;;;;;5003821;28;20579;-65
2023/01/26 12:03:37;;;;;;;2.38;0.60;;;12.20;46.10;;;;;;5003312;28;20086;-64
2023/01/26 12:06:06;;;;;;;;;;;12.00;46.20;;;;;;4999830;28;20079;-63
2023/01/26 12:09:02;;;;;;;1.48;1.00;;;11.90;46.90;;;;;;4990331;28;20010;-65
2023/01/26 12:11:43;;;;;;;1.00;0.90;;;11.90;46.50;;;;;;5001695;28;20095;-63
2023/01/26 12:14:22;;;;;;;2.00;0.80;;;11.90;46.70;;;;;;5003268;28;20158;-65
2023/01/26 12:17:10;;;;;;;3.75;0.95;;;11.80;46.90;;;;;;5000985;28;20102;-65
2023/01/26 12:20:03;;;;;;;3.55;0.90;;;11.70;47.20;;;;;;5002744;28;20127;-63
2023/01/26 12:22:34;;;;;;;2.55;0.88;;;11.60;47.60;;;;;;5003008;28;20106;-64
2023/01/26 12:25:15;;;;;;;1.75;0.80;;;11.60;48.00;;;;;;5001072;28;20100;-66
2023/01/26 12:27:47;;;;;;;1.00;0.70;;;11.60;48.70;;;;;;5003973;28;20068;-64
2023/01/26 12:30:29;;;;;;;3.78;0.70;;;11.60;49.10;;;;;;5000248;28;20090;-63
2023/01/26 12:32:55;;;;;;;1.15;0.70;;;11.60;49.50;;;;;;5059018;28;20068;-63
2023/01/26 12:35:47;;;;;;;3.95;0.77;;;11.50;49.70;;;;;;5061017;28;20101;-65
2023/01/26 12:38:27;;;;;;;3.22;0.80;;;11.60;50.00;;;;;;5061349;28;20167;-63
2023/01/26 12:41:21;;;;;;;4.70;0.73;;;11.50;50.20;;;;;;5060119;28;20096;-65
2023/01/26 12:44:05;;;;;;;4.43;1.20;;;11.50;50.30;;;;;;5061547;28;20109;-65
2023/01/26 12:46:36;;;;;;;6.03;1.83;;;11.40;50.40;;;;;;5064019;28;20078;-65
2023/01/26 12:49:18;;;;;;;6.65;1.80;;;11.30;50.60;;;;;;5045331;28;20075;-65
2023/01/26 12:51:51;;;;;;;5.05;1.80;;;11.20;50.80;;;;;;5060447;28;20067;-63
2023/01/26 12:54:43;;;;;;;3.75;1.42;;;11.20;51.10;;;;;;5063447;28;20117;-65
2023/01/26 12:57:19;;;;;;;8.35;1.90;;;11.20;51.40;;;;;;5040240;28;20067;-65
2023/01/26 12:59:46;;;;;;;8.07;2.90;;;11.10;51.40;;;;;;5065290;28;20078;-63
2023/01/26 13:02:16;;;;;;;9.70;3.00;;;11.00;51.80;;;;;;5062253;28;20078;-66
2023/01/26 13:04:43;;;;;;;8.45;2.35;;;11.00;51.90;;;;;;5059783;28;20594;-66
2023/01/26 13:07:37;;;;;;;10.75;2.20;;;11.00;52.10;;;;;;5045800;28;20096;-63
2023/01/26 13:10:19;;;;;;;5.18;2.13;;;10.80;52.30;;;;;;5065647;28;20454;-63
2023/01/26 13:12:57;;;;;;;16.13;2.22;;;10.60;52.40;;;;;;5060578;28;20089;-66
2023/01/26 13:15:27;;;;;;;10.02;2.20;;;10.50;53.10;;;;;;5060323;28;20079;-65
2023/01/26 13:17:55;;;;;;;16.25;2.35;;;10.50;53.30;;;;;;5064294;28;20271;-64
2023/01/26 13:20:24;;;;;;;7.70;2.05;;;10.20;53.20;;;;;;5062695;28;20437;-65
2023/01/26 13:22:51;;;;;;;12.63;2.70;;;10.20;53.70;;;;;;5060872;28;20082;-65
2023/01/26 13:25:27;;;;;;;7.25;2.03;;;10.20;54.20;;;;;;5063508;28;20096;-65
2023/01/26 13:28:12;;;;;;;14.18;2.72;;;10.00;54.70;;;;;;5045649;28;20065;-65
2023/01/26 13:30:45;;;;;;;9.95;1.98;;;10.10;54.80;;;;;;5065082;28;20086;-65
2023/01/26 13:33:23;;;;;;;16.75;2.17;;;10.00;54.50;;;;;;5059497;28;20074;-63
2023/01/26 13:35:52;;;;;;;7.70;1.98;;;9.90;54.60;;;;;;5057349;28;20463;-65
2023/01/26 13:38:22;;;;;;;9.63;2.08;;;9.80;55.10;;;;;;5060761;28;20158;-65
2023/01/26 13:40:49;;;;;;;11.15;2.35;;;9.70;55.30;;;;;;5062339;28;20098;-66
2023/01/26 13:43:27;;;;;;;20.40;2.42;;;9.70;55.40;;;;;;5061105;28;20179;-63
2023/01/26 13:46:32;;;;;;;13.93;2.35;;;9.70;55.80;;;;;;5061809;28;20599;-63
2023/01/26 13:49:00;;;;;;;5.25;2.03;;;9.70;55.70;;;;;;4963035;28;20104;-65
2023/01/26 13:51:29;;;;;;;8.75;2.20;;;9.60;55.70;;;;;;4958508;28;20112;-65
2023/01/26 13:54:10;;;;;;;9.30;1.88;;;9.60;55.50;;;;;;4964137;28;20600;-64
2023/01/26 13:56:39;;;;;;;6.95;1.30;;;9.70;55.40;;;;;;4958299;28;20081;-63
2023/01/26 13:59:19;;;;;;;9.23;1.30;;;9.90;54.30;;;;;;4965717;28;20085;-65
2023/01/26 14:01:48;;;;;;;5.22;1.40;;;10.10;53.40;;;;;;4962835;28;20137;-64
2023/01/26 14:04:27;;;;;;;10.27;1.45;;;10.10;53.40;;;;;;4963603;28;20158;-64
2023/01/26 14:06:55;;;;;;;4.40;1.45;;;10.30;52.70;;;;;;4961368;28;20101;-62
2023/01/26 14:09:22;;;;;;;5.40;1.50;;;10.40;52.40;;;;;;4958332;28;20069;-64